Time;durP1;ratioP1;P1;durP2;ratioP2;P2;SDS_P1;SDS_P2;PMS_P1;PMS_P2;Temp;Humidity;BMP_temperature;BMP_pressure;BME280_temperature;BME280_humidity;BME280_pressure;Samples;Min_cycle;Max_cycle;Signal;HPM_P1;HPM_P2
2023/04/20 03:35:24;;;;;;;;;;;;;;;;;;;;;
2023/04/20 04:54:59;;;;;;;;;;;;;;;;;;;;;
2023/04/20 05:19:37;;;;;;;;;;;;;;;;;;;;;
2023/04/20 06:10:56;;;;;;;10.13;2.50;;;7.00;63.80;;;;;;4762103;29;20132;-94
2023/04/20 07:15:42;;;;;;;8.03;3.73;;;5.50;69.10;;;;;;6103447;22;1688807;-95
2023/04/20 07:18:59;;;;;;;10.37;3.47;;;5.30;71.30;;;;;;6075014;23;20103;-91
2023/04/20 07:22:33;;;;;;;;;;;;;;;;;;;;;
2023/04/20 07:32:31;;;;;;;9.37;4.10;;;5.50;70.80;;;;;;6164160;23;20621;-95
2023/04/20 07:35:52;;;;;;;5.47;3.60;;;5.50;70.90;;;;;;6098905;23;20597;-92
2023/04/20 07:38:33;;;;;;;9.20;3.77;;;5.50;71.10;;;;;;6147017;22;20273;-94
2023/04/20 07:47:32;;;;;;;9.93;4.03;;;5.50;71.70;;;;;;6210996;23;20047;-90
2023/04/20 07:50:07;;;;;;;7.53;3.50;;;5.50;71.90;;;;;;6186888;23;20074;-93
2023/04/20 07:53:35;;;;;;;;;;;;;;;;;;;;;
2023/04/20 07:56:16;;;;;;;12.95;4.28;;;5.60;72.40;;;;;;6220992;23;20027;-92
2023/04/20 07:59:50;;;;;;;10.73;4.00;;;5.70;72.10;;;;;;6202725;23;20023;-94
2023/04/20 08:02:27;;;;;;;8.30;4.17;;;5.90;72.60;;;;;;6215120;22;20028;-92
2023/04/20 08:05:30;;;;;;;;;;;;;;;;;;;;;
2023/04/20 08:08:08;;;;;;;8.97;3.77;;;6.20;71.90;;;;;;6225548;22;20023;-92
2023/04/20 08:10:37;;;;;;;5.67;3.87;;;6.20;71.80;;;;;;6207879;23;20051;-92
2023/04/20 08:13:09;;;;;;;8.60;4.30;;;6.10;71.90;;;;;;6206567;23;20016;-91
2023/04/20 08:15:35;;;;;;;;;;;6.10;71.80;;;;;;6200913;23;20020;-91
2023/04/20 08:18:04;;;;;;;8.03;4.07;;;6.00;72.20;;;;;;6196617;23;20005;-91
2023/04/20 08:20:46;;;;;;;12.63;4.17;;;6.00;71.60;;;;;;6204957;23;20016;-92
2023/04/20 08:23:15;;;;;;;7.30;3.70;;;6.00;71.60;;;;;;6163640;22;20030;-90
2023/04/20 08:26:16;;;;;;;5.43;4.07;;;6.00;71.40;;;;;;6176352;23;20631;-96
2023/04/20 08:32:38;;;;;;;;;;;;;;;;;;;;;
2023/04/20 08:35:47;;;;;;;11.77;4.00;;;6.10;71.80;;;;;;6204857;22;20126;-93
2023/04/20 08:38:23;;;;;;;8.80;3.87;;;6.20;72.00;;;;;;6231226;22;20174;-89
2023/04/20 08:41:14;;;;;;;8.73;3.83;;;6.30;71.80;;;;;;6198465;23;20013;-88
2023/04/20 08:43:40;;;;;;;9.10;4.50;;;6.20;72.20;;;;;;6170398;23;20027;-91
2023/04/20 08:46:59;;;;;;;;;;;;;;;;;;;;;
2023/04/20 08:50:19;;;;;;;7.43;4.50;;;6.20;72.90;;;;;;6136150;23;20943;-94
2023/04/20 08:56:38;;;;;;;9.70;4.57;;;6.10;72.10;;;;;;6020069;23;20157;-93
2023/04/20 08:59:09;;;;;;;6.93;4.18;;;6.10;72.20;;;;;;6010372;23;20026;-94
2023/04/20 09:04:47;;;;;;;9.10;4.27;;;5.90;72.50;;;;;;6047353;23;20031;-93
2023/04/20 09:08:08;;;;;;;;;;;;;;;;;;;;;
2023/04/20 09:11:00;;;;;;;10.40;5.10;;;6.00;73.30;;;;;;6033602;23;20637;-94
2023/04/20 09:13:44;;;;;;;11.07;4.40;;;6.00;73.40;;;;;;6038808;23;20026;-94
2023/04/20 09:21:07;;;;;;;9.67;5.30;;;6.30;73.50;;;;;;5941141;23;20027;-92
2023/04/20 09:24:11;;;;;;;9.87;5.13;;;6.40;73.00;;;;;;5979853;23;20031;-94
2023/04/20 09:26:55;;;;;;;8.20;4.93;;;6.50;73.10;;;;;;5987530;23;20326;-92
2023/04/20 09:30:08;;;;;;;;;;;;;;;;;;;;;
2023/04/20 09:33:32;;;;;;;6.93;4.37;;;6.70;73.50;;;;;;6210327;23;20487;-91
2023/04/20 09:36:16;;;;;;;10.80;5.10;;;6.70;72.60;;;;;;6178250;23;20148;-93
2023/04/20 09:39:19;;;;;;;9.47;5.27;;;6.70;72.60;;;;;;6199205;23;20031;-95
2023/04/20 09:44:44;;;;;;;12.33;5.03;;;6.80;72.40;;;;;;6044001;23;20109;-93
2023/04/20 09:47:32;;;;;;;10.70;5.03;;;6.90;72.80;;;;;;6049283;23;20022;-92
2023/04/20 09:50:15;;;;;;;12.77;5.20;;;7.00;73.10;;;;;;6080425;23;20022;-94
2023/04/20 09:53:03;;;;;;;8.87;5.10;;;7.00;72.10;;;;;;6034885;23;20424;-91
2023/04/20 09:55:52;;;;;;;10.10;5.07;;;7.20;72.20;;;;;;6078672;23;20024;-93
2023/04/20 09:58:28;;;;;;;8.30;5.10;;;7.30;71.50;;;;;;6154605;23;20052;-91
2023/04/20 10:01:42;;;;;;;11.43;5.27;;;7.30;71.50;;;;;;6195098;23;20015;-91
2023/04/20 10:11:33;;;;;;;12.47;5.50;;;7.50;72.00;;;;;;6057701;23;20203;-92
2023/04/20 10:14:21;;;;;;;10.70;5.80;;;7.50;72.00;;;;;;6058607;23;20045;-95
2023/04/20 10:20:00;;;;;;;11.63;5.93;;;7.60;72.20;;;;;;6042131;23;20029;-92
2023/04/20 10:23:17;;;;;;;;;;;;;;;;;;;;;
2023/04/20 10:30:45;;;;;;;10.90;5.57;;;7.90;71.60;;;;;;6235533;23;20127;-96
2023/04/20 10:41:16;;;;;;;9.10;5.60;;;7.50;71.40;;;;;;6013917;23;20418;-91
2023/04/20 10:48:06;;;;;;;;;;;;;;;;;;;;;
2023/04/20 10:51:18;;;;;;;8.77;6.00;;;7.40;71.50;;;;;;6027703;23;20033;-91
2023/04/20 11:04:09;;;;;;;9.50;5.75;;;7.30;72.20;;;;;;6015420;23;20132;-94
2023/04/20 11:10:11;;;;;;;11.20;6.23;;;7.20;72.40;;;;;;6031496;23;20030;-92
2023/04/20 11:16:20;;;;;;;13.43;6.40;;;7.30;72.70;;;;;;6070068;23;20666;-92
2023/04/20 11:19:59;;;;;;;12.87;6.40;;;7.50;72.50;;;;;;6007151;23;20054;-93
2023/04/20 11:22:56;;;;;;;11.87;5.73;;;7.70;72.60;;;;;;6098213;23;20028;-93
2023/04/20 11:25:25;;;;;;;10.63;5.90;;;7.80;72.10;;;;;;6180855;23;20051;-90
2023/04/20 11:28:11;;;;;;;11.23;5.90;;;7.80;72.10;;;;;;6173255;23;20890;-92
2023/04/20 11:30:48;;;;;;;11.33;6.30;;;7.80;71.80;;;;;;6171953;23;20102;-90
2023/04/20 11:33:33;;;;;;;8.87;5.90;;;7.60;71.80;;;;;;6159377;23;20543;-89
2023/04/20 11:36:00;;;;;;;10.47;6.40;;;7.60;72.10;;;;;;6190448;23;20016;-90
2023/04/20 11:38:32;;;;;;;13.53;6.67;;;7.60;72.20;;;;;;6174486;23;20020;-89
2023/04/20 11:41:03;;;;;;;12.00;6.70;;;7.70;72.20;;;;;;6202503;23;20016;-93
2023/04/20 11:43:34;;;;;;;12.25;6.93;;;7.80;72.20;;;;;;6194809;23;20016;-91
2023/04/20 11:46:01;;;;;;;10.52;6.32;;;7.80;72.00;;;;;;6201779;23;20353;-90
2023/04/20 11:48:46;;;;;;;11.37;6.40;;;7.80;71.90;;;;;;6137055;23;20445;-88
2023/04/20 11:51:28;;;;;;;13.93;6.80;;;7.80;72.20;;;;;;6168090;23;20020;-94
2023/04/20 11:54:07;;;;;;;13.10;6.87;;;7.90;72.20;;;;;;6097476;23;20086;-91
2023/04/20 11:56:36;;;;;;;12.00;6.33;;;8.00;71.90;;;;;;6171376;23;20082;-91
2023/04/20 11:59:18;;;;;;;10.10;6.97;;;8.00;71.90;;;;;;6174816;23;20016;-91
2023/04/20 12:01:54;;;;;;;16.23;7.07;;;8.00;72.10;;;;;;6170715;23;20017;-91
2023/04/20 12:05:07;;;;;;;;;;;;;;;;;;;;;
2023/04/20 12:07:44;;;;;;;12.90;7.67;;;8.10;71.60;;;;;;6161484;23;20120;-89
2023/04/20 12:10:10;;;;;;;13.07;8.00;;;8.10;71.90;;;;;;6116848;23;20021;-90
2023/04/20 12:12:37;;;;;;;13.47;7.73;;;8.10;72.10;;;;;;6165440;23;20052;-88
2023/04/20 12:15:08;;;;;;;12.43;7.80;;;8.30;72.10;;;;;;6198667;23;20023;-89
2023/04/20 12:17:36;;;;;;;12.85;7.07;;;8.40;71.90;;;;;;6166870;23;20019;-89
2023/04/20 12:20:07;;;;;;;13.37;8.10;;;8.60;71.80;;;;;;6190113;23;20044;-91
2023/04/20 12:22:41;;;;;;;11.43;6.28;;;8.90;71.80;;;;;;6174490;22;20020;-91
2023/04/20 12:25:10;;;;;;;11.23;7.77;;;9.30;71.50;;;;;;6196132;23;20035;-91
2023/04/20 12:27:47;;;;;;;12.30;8.07;;;9.50;70.70;;;;;;6181680;23;20044;-90
2023/04/20 12:30:37;;;;;;;12.20;7.80;;;9.70;70.50;;;;;;6186132;22;20016;-91
2023/04/20 12:33:08;;;;;;;14.87;8.80;;;9.50;69.80;;;;;;6198888;22;20019;-90
2023/04/20 12:35:50;;;;;;;13.43;8.67;;;9.40;70.20;;;;;;6199136;22;20012;-93
2023/04/20 12:38:24;;;;;;;11.43;7.93;;;9.30;70.00;;;;;;6197799;22;20027;-91
2023/04/20 12:41:13;;;;;;;11.75;8.40;;;9.20;69.70;;;;;;6201130;22;20073;-94
2023/04/20 12:44:16;;;;;;;16.03;9.20;;;9.20;70.20;;;;;;6152394;23;20103;-95
2023/04/20 12:46:53;;;;;;;10.70;8.30;;;9.40;69.70;;;;;;6180149;22;20047;-91
2023/04/20 12:49:27;;;;;;;11.80;8.37;;;9.40;69.30;;;;;;6134226;22;20094;-91
2023/04/20 12:51:55;;;;;;;11.87;8.20;;;9.30;69.20;;;;;;6174745;22;20015;-89
2023/04/20 12:54:47;;;;;;;10.67;7.50;;;9.20;69.30;;;;;;6185105;22;20177;-90
2023/04/20 12:57:13;;;;;;;11.63;7.63;;;9.20;69.40;;;;;;6145834;22;20062;-89
2023/04/20 13:00:01;;;;;;;11.83;7.73;;;9.20;69.60;;;;;;6198158;23;20020;-91
2023/04/20 13:03:12;;;;;;;12.80;7.87;;;9.10;69.50;;;;;;6131307;23;20020;-90
2023/04/20 13:05:51;;;;;;;;;;;;;;;;;;;;;
2023/04/20 13:08:22;;;;;;;11.50;7.70;;;9.40;70.10;;;;;;6167042;22;20030;-90
2023/04/20 13:11:35;;;;;;;11.65;7.40;;;9.70;69.80;;;;;;6171263;23;20020;-90
2023/04/20 13:14:09;;;;;;;10.47;6.93;;;9.90;68.90;;;;;;6078222;23;20031;-90
2023/04/20 13:16:40;;;;;;;11.00;7.47;;;10.00;68.60;;;;;;6087291;23;20021;-92
2023/04/20 13:19:11;;;;;;;9.20;6.77;;;10.20;68.70;;;;;;6095454;23;20021;-91
2023/04/20 13:31:49;;;;;;;9.43;6.80;;;10.40;67.00;;;;;;6068654;23;20030;-92
2023/04/20 13:38:33;;;;;;;9.50;7.27;;;10.30;66.70;;;;;;6070508;23;20057;-94
2023/04/20 13:41:02;;;;;;;9.80;6.87;;;10.30;66.60;;;;;;6109246;23;20016;-92
2023/04/20 13:43:40;;;;;;;;;;;;;;;;;;;;;
2023/04/20 13:46:19;;;;;;;9.52;6.50;;;10.40;66.80;;;;;;6190841;23;20016;-92
2023/04/20 13:48:45;;;;;;;8.47;7.03;;;10.50;66.70;;;;;;6186036;23;20629;-90
2023/04/20 13:51:14;;;;;;;9.47;7.03;;;10.60;67.10;;;;;;6145827;23;20107;-93
2023/04/20 13:53:42;;;;;;;11.70;7.57;;;10.80;66.60;;;;;;6132039;23;20021;-92
2023/04/20 13:56:17;;;;;;;9.17;7.07;;;10.70;66.10;;;;;;6105504;23;20023;-92
2023/04/20 13:58:50;;;;;;;10.13;7.40;;;10.80;66.30;;;;;;6137718;23;20032;-91
2023/04/20 14:01:19;;;;;;;10.80;7.00;;;10.90;66.20;;;;;;6139200;23;20455;-90
2023/04/20 14:03:45;;;;;;;12.33;7.20;;;11.00;65.70;;;;;;6161090;23;20926;-91
2023/04/20 14:06:13;;;;;;;10.20;7.90;;;11.10;65.40;;;;;;6159730;23;20425;-88
2023/04/20 14:08:39;;;;;;;12.23;7.93;;;11.10;65.10;;;;;;6126897;23;20802;-88
2023/04/20 14:11:05;;;;;;;9.17;7.20;;;11.10;65.00;;;;;;6111376;23;20055;-89
2023/04/20 14:13:34;;;;;;;9.83;7.00;;;11.20;65.00;;;;;;6134740;23;20031;-90
2023/04/20 14:16:26;;;;;;;9.20;7.30;;;11.30;64.50;;;;;;6109737;23;20020;-89
2023/04/20 14:18:57;;;;;;;12.07;7.50;;;11.30;62.80;;;;;;6144357;23;20032;-89
2023/04/20 14:21:23;;;;;;;10.30;7.75;;;11.20;64.10;;;;;;6115286;23;20020;-89
2023/04/20 14:23:52;;;;;;;9.50;7.53;;;11.20;64.20;;;;;;6100569;23;20024;-87
2023/04/20 14:26:35;;;;;;;10.00;7.03;;;11.30;63.70;;;;;;6195582;23;20070;-90
2023/04/20 14:29:14;;;;;;;9.67;6.87;;;11.50;63.50;;;;;;6192015;23;20038;-91
2023/04/20 14:32:21;;;;;;;9.90;6.63;;;11.70;63.00;;;;;;6172088;23;20023;-93
2023/04/20 14:34:49;;;;;;;9.10;6.90;;;11.70;61.40;;;;;;6197076;23;20044;-91
2023/04/20 14:37:18;;;;;;;9.73;7.53;;;11.70;62.80;;;;;;6196696;23;20143;-89
2023/04/20 14:39:47;;;;;;;12.23;7.13;;;11.50;63.10;;;;;;6175721;23;20277;-91
2023/04/20 14:42:22;;;;;;;9.50;7.27;;;11.40;63.00;;;;;;6199905;22;20726;-91
2023/04/20 14:44:48;;;;;;;9.70;7.47;;;11.30;62.70;;;;;;6202603;23;20127;-91
2023/04/20 14:47:30;;;;;;;8.70;6.87;;;11.20;63.20;;;;;;6158260;22;20016;-90
2023/04/20 14:49:59;;;;;;;10.45;7.13;;;11.30;62.70;;;;;;6180829;23;20760;-91
2023/04/20 14:52:28;;;;;;;9.55;6.80;;;11.30;62.60;;;;;;6169254;22;20574;-92
2023/04/20 14:54:57;;;;;;;10.30;7.57;;;11.40;63.00;;;;;;6199485;23;20020;-91
2023/04/20 14:57:28;;;;;;;10.57;7.72;;;11.50;63.20;;;;;;6194095;22;20028;-90
2023/04/20 14:59:59;;;;;;;10.57;7.60;;;11.70;63.20;;;;;;6203270;23;20058;-93
2023/04/20 15:02:41;;;;;;;;;;;;;;;;;;;;;
2023/04/20 15:05:53;;;;;;;12.30;8.30;;;11.50;63.60;;;;;;6192823;23;20067;-92
2023/04/20 15:08:18;;;;;;;;;;;11.30;63.90;;;;;;6135674;22;20024;-91
2023/04/20 15:10:55;;;;;;;11.02;7.72;;;11.10;64.60;;;;;;6201334;23;20012;-92
2023/04/20 15:13:24;;;;;;;9.83;8.13;;;11.10;64.40;;;;;;6170424;22;20023;-91
2023/04/20 15:16:05;;;;;;;11.43;8.27;;;11.00;64.50;;;;;;6202225;23;20016;-91
2023/04/20 15:18:34;;;;;;;9.37;8.07;;;11.00;64.40;;;;;;6156343;23;20028;-90
2023/04/20 15:21:02;;;;;;;9.80;8.27;;;10.90;64.20;;;;;;6178008;23;20031;-91
2023/04/20 15:23:29;;;;;;;9.97;7.73;;;10.80;64.00;;;;;;6188148;22;20027;-91
2023/04/20 15:30:08;;;;;;;11.77;7.80;;;10.70;64.90;;;;;;6213546;23;20357;-93
2023/04/20 15:32:40;;;;;;;9.90;7.40;;;11.00;64.90;;;;;;6160308;23;20610;-91
2023/04/20 15:35:09;;;;;;;10.83;7.90;;;11.10;64.70;;;;;;6162157;23;20062;-91
2023/04/20 15:37:42;;;;;;;9.30;7.47;;;11.50;64.90;;;;;;6200164;23;20710;-92
2023/04/20 15:43:24;;;;;;;10.20;7.50;;;11.80;64.10;;;;;;6174644;22;20142;-88
2023/04/20 15:49:54;;;;;;;9.97;8.50;;;12.00;63.70;;;;;;6073947;23;20025;-96
2023/04/20 15:52:48;;;;;;;11.10;8.55;;;12.10;63.40;;;;;;6107012;22;20099;-92
2023/04/20 15:56:21;;;;;;;10.18;7.95;;;11.70;63.10;;;;;;6175897;22;20019;-93
2023/04/20 15:59:31;;;;;;;12.53;8.70;;;11.40;64.40;;;;;;6127262;23;20465;-93
2023/04/20 16:08:22;;;;;;;9.53;8.17;;;11.00;64.50;;;;;;6082528;23;20114;-90
2023/04/20 16:11:10;;;;;;;12.53;8.70;;;10.80;64.70;;;;;;5975824;23;20109;-94
2023/04/20 16:14:21;;;;;;;10.13;8.43;;;10.70;64.80;;;;;;6006061;23;20035;-95
2023/04/20 16:17:14;;;;;;;11.43;8.83;;;10.70;64.90;;;;;;6015059;23;20174;-90
2023/04/20 16:19:59;;;;;;;11.33;9.20;;;10.80;65.10;;;;;;5936618;24;20503;-93
2023/04/20 16:22:55;;;;;;;12.57;9.00;;;10.80;65.00;;;;;;5959300;23;20113;-92
2023/04/20 16:25:24;;;;;;;12.67;8.47;;;10.90;65.00;;;;;;6015211;23;20019;-93
2023/04/20 16:27:53;;;;;;;10.37;8.50;;;11.10;65.00;;;;;;6026778;23;20082;-93
2023/04/20 16:30:22;;;;;;;11.73;8.37;;;11.10;64.80;;;;;;6032543;23;20369;-92
2023/04/20 16:33:36;;;;;;;;;;;;;;;;;;;;;
2023/04/20 16:36:59;;;;;;;13.13;8.53;;;11.10;65.00;;;;;;6092877;23;20080;-92
2023/04/20 16:43:16;;;;;;;9.93;8.13;;;11.10;65.10;;;;;;6012987;23;20105;-90
2023/04/20 16:46:21;;;;;;;;;;;;;;;;;;;;;
2023/04/20 16:52:59;;;;;;;12.95;9.95;;;10.30;66.60;;;;;;5981594;23;20026;-92
2023/04/20 16:55:22;;;;;;;16.57;9.50;;;10.20;66.90;;;;;;6170615;23;20021;-91
2023/04/20 17:00:45;;;;;;;13.60;9.60;;;10.10;67.50;;;;;;6140769;23;20025;-90
2023/04/20 17:04:02;;;;;;;14.02;8.43;;;10.10;67.80;;;;;;6092860;23;20052;-91
2023/04/20 17:06:34;;;;;;;11.67;8.20;;;10.00;67.90;;;;;;6148832;23;20647;-91
2023/04/20 17:09:06;;;;;;;13.80;8.60;;;9.90;68.00;;;;;;6113570;23;20029;-91
2023/04/20 17:11:36;;;;;;;12.53;8.50;;;9.80;68.00;;;;;;6096545;23;20460;-91
2023/04/20 17:17:41;;;;;;;15.57;8.93;;;9.60;68.50;;;;;;6117962;23;20020;-94
2023/04/20 17:20:50;;;;;;;15.07;8.97;;;9.50;69.20;;;;;;6095074;23;20107;-94
2023/04/20 17:23:31;;;;;;;14.47;8.90;;;9.40;69.80;;;;;;6159742;23;20024;-91
2023/04/20 17:26:18;;;;;;;14.60;8.70;;;9.30;69.30;;;;;;6137130;23;20023;-91
2023/04/20 17:29:13;;;;;;;16.40;9.63;;;9.20;69.60;;;;;;6152934;23;20028;-93
2023/04/20 17:31:46;;;;;;;;;;;;;;;;;;;;;
2023/04/20 17:34:15;;;;;;;14.40;9.43;;;9.00;69.90;;;;;;6182895;23;20030;-88
2023/04/20 17:36:41;;;;;;;15.57;9.03;;;9.00;70.20;;;;;;6180540;23;20108;-90
2023/04/20 17:39:10;;;;;;;14.07;9.13;;;9.00;70.20;;;;;;6159845;23;20016;-90
2023/04/20 17:41:39;;;;;;;15.90;9.50;;;9.00;70.40;;;;;;6138088;23;20036;-90
2023/04/20 17:44:09;;;;;;;15.30;9.07;;;9.00;70.50;;;;;;6215110;23;20115;-92
2023/04/20 17:46:38;;;;;;;13.10;8.85;;;8.90;70.60;;;;;;6163669;23;20031;-90
2023/04/20 17:49:07;;;;;;;13.57;10.20;;;8.90;70.80;;;;;;6212492;23;20036;-90
2023/04/20 17:51:33;;;;;;;14.50;10.03;;;8.80;70.80;;;;;;6217526;23;20020;-90
2023/04/20 17:53:58;;;;;;;13.87;10.30;;;8.80;71.10;;;;;;6215116;23;20012;-89
2023/04/20 17:56:27;;;;;;;14.63;10.40;;;8.70;71.20;;;;;;6210556;23;20042;-91
2023/04/20 17:58:54;;;;;;;17.20;10.73;;;8.60;71.20;;;;;;6199829;23;20026;-89
2023/04/20 18:01:33;;;;;;;17.93;11.23;;;8.60;71.40;;;;;;6192453;23;20048;-91
2023/04/20 18:03:59;;;;;;;18.53;11.57;;;8.50;71.70;;;;;;6190869;23;20024;-89
2023/04/20 18:06:25;;;;;;;17.17;12.03;;;8.40;72.00;;;;;;6210326;23;20016;-89
2023/04/20 18:08:50;;;;;;;17.47;11.57;;;8.40;72.20;;;;;;6186076;23;20027;-89
2023/04/20 18:11:18;;;;;;;16.80;12.37;;;8.30;72.40;;;;;;6215623;23;20019;-90
2023/04/20 18:13:45;;;;;;;16.67;11.37;;;8.20;72.50;;;;;;6213647;23;20150;-90
2023/04/20 18:16:13;;;;;;;18.47;12.37;;;8.20;72.80;;;;;;6189560;23;20052;-90
2023/04/20 18:18:39;;;;;;;20.13;12.67;;;8.10;72.80;;;;;;6182452;23;20074;-89
2023/04/20 18:21:05;;;;;;;19.77;12.47;;;8.10;73.20;;;;;;6215604;23;20020;-89
2023/04/20 18:23:31;;;;;;;17.80;12.53;;;8.00;73.10;;;;;;6213188;23;20027;-89
2023/04/20 18:25:57;;;;;;;20.50;13.17;;;8.00;73.10;;;;;;6215733;23;20016;-89
2023/04/20 18:28:24;;;;;;;19.93;12.80;;;8.00;73.40;;;;;;6192559;22;20019;-90
2023/04/20 18:30:50;;;;;;;20.20;13.03;;;8.00;73.70;;;;;;6216081;23;20099;-89
2023/04/20 18:33:16;;;;;;;19.53;13.23;;;8.00;73.40;;;;;;6175058;23;20051;-89
2023/04/20 18:35:42;;;;;;;23.30;15.17;;;8.00;73.90;;;;;;6184174;23;20028;-88
2023/04/20 18:38:08;;;;;;;22.53;14.70;;;7.90;74.10;;;;;;6209658;23;20020;-89
2023/04/20 18:40:34;;;;;;;21.13;14.33;;;7.80;74.30;;;;;;6192918;23;20027;-91
2023/04/20 18:43:03;;;;;;;23.80;14.87;;;7.80;74.70;;;;;;6214579;23;20091;-88
2023/04/20 18:45:31;;;;;;;24.90;15.80;;;7.80;74.90;;;;;;6215665;23;20442;-89
2023/04/20 18:47:57;;;;;;;22.90;15.70;;;7.70;75.20;;;;;;6179049;23;20078;-89
2023/04/20 18:50:23;;;;;;;18.90;14.67;;;7.60;75.10;;;;;;6216379;23;20016;-90
2023/04/20 18:52:48;;;;;;;24.73;16.90;;;7.60;75.40;;;;;;6214723;23;20016;-90
2023/04/20 18:55:17;;;;;;;22.17;15.87;;;7.50;75.40;;;;;;6215577;23;20024;-89
2023/04/20 18:57:48;;;;;;;22.80;15.17;;;7.50;75.80;;;;;;6195247;22;20077;-89
2023/04/20 19:00:14;;;;;;;22.80;16.25;;;7.50;75.80;;;;;;6215680;23;20042;-88
2023/04/20 19:02:40;;;;;;;23.23;15.47;;;7.50;76.00;;;;;;6213678;23;20017;-90
2023/04/20 19:05:06;;;;;;;22.57;14.83;;;7.50;75.90;;;;;;6166072;23;20024;-89
2023/04/20 19:07:35;;;;;;;22.60;14.57;;;7.50;76.10;;;;;;6207130;23;20442;-91
2023/04/20 19:10:01;;;;;;;25.30;16.00;;;7.60;75.70;;;;;;6188957;23;20021;-91
2023/04/20 19:12:36;;;;;;;21.80;15.63;;;7.50;75.90;;;;;;6212333;23;20115;-88
2023/04/20 19:15:03;;;;;;;23.70;17.83;;;7.50;75.80;;;;;;6215082;23;20047;-89
2023/04/20 19:17:31;;;;;;;21.50;16.43;;;7.50;76.10;;;;;;6204430;23;20017;-92
2023/04/20 19:19:59;;;;;;;26.50;16.50;;;7.60;76.10;;;;;;6215832;23;20024;-93
2023/04/20 19:22:28;;;;;;;26.40;17.60;;;7.60;76.10;;;;;;6213480;22;20034;-89
2023/04/20 19:24:53;;;;;;;22.80;17.00;;;7.60;76.20;;;;;;6240665;22;20012;-89
2023/04/20 19:27:19;;;;;;;24.53;17.53;;;7.60;76.20;;;;;;6165191;22;20518;-88
2023/04/20 19:29:45;;;;;;;23.20;18.10;;;7.60;76.30;;;;;;6215878;23;20013;-89
2023/04/20 19:32:14;;;;;;;23.67;16.83;;;7.60;76.50;;;;;;6213665;22;20031;-91
2023/04/20 19:34:40;;;;;;;23.27;17.53;;;7.60;76.10;;;;;;6215387;23;20055;-88
2023/04/20 19:37:12;;;;;;;22.67;16.23;;;7.60;76.30;;;;;;6180742;23;20016;-89
2023/04/20 19:39:41;;;;;;;20.13;15.70;;;7.60;76.20;;;;;;6192242;23;20058;-88
2023/04/20 19:42:06;;;;;;;25.80;17.30;;;7.60;76.20;;;;;;6213239;22;20016;-89
2023/04/20 19:44:35;;;;;;;24.73;16.50;;;7.60;76.30;;;;;;6165134;23;20158;-89
2023/04/20 19:47:02;;;;;;;25.23;17.60;;;7.50;76.40;;;;;;6230128;22;20024;-89
2023/04/20 19:49:30;;;;;;;30.60;18.37;;;7.60;76.20;;;;;;6213689;23;20052;-89
2023/04/20 19:51:59;;;;;;;24.27;17.52;;;7.50;76.20;;;;;;6191454;23;20024;-89
2023/04/20 19:54:25;;;;;;;23.27;17.17;;;7.60;76.30;;;;;;6212982;23;20070;-89
2023/04/20 19:56:50;;;;;;;33.63;18.43;;;7.50;76.50;;;;;;6234412;22;20042;-89
2023/04/20 19:59:16;;;;;;;26.67;17.87;;;7.60;76.20;;;;;;6213278;23;20066;-89
2023/04/20 20:01:45;;;;;;;25.80;18.20;;;7.60;76.30;;;;;;6216002;23;20091;-89
2023/04/20 20:04:14;;;;;;;26.23;18.33;;;7.60;76.30;;;;;;6212811;23;20343;-89
2023/04/20 20:06:39;;;;;;;26.17;18.77;;;7.60;76.40;;;;;;6208097;23;20565;-90
2023/04/20 20:09:08;;;;;;;25.63;19.70;;;7.60;76.40;;;;;;6211803;23;20016;-90
2023/04/20 20:11:33;;;;;;;29.50;20.57;;;7.50;76.40;;;;;;6216843;23;20019;-90
2023/04/20 20:14:02;;;;;;;31.70;22.03;;;7.60;76.40;;;;;;6215600;23;20024;-89
2023/04/20 20:16:28;;;;;;;31.03;22.17;;;7.60;76.50;;;;;;6186466;23;20426;-90
2023/04/20 20:19:01;;;;;;;35.73;22.63;;;7.60;76.50;;;;;;6189621;23;20097;-90
2023/04/20 20:21:27;;;;;;;23.13;15.68;;;7.60;76.40;;;;;;6192362;23;20016;-90
2023/04/20 20:23:53;;;;;;;26.87;20.90;;;7.60;76.50;;;;;;6214265;23;20385;-89
2023/04/20 20:26:19;;;;;;;32.30;21.77;;;7.60;76.50;;;;;;6188166;23;20109;-90
2023/04/20 20:28:51;;;;;;;28.23;20.80;;;7.60;76.40;;;;;;6200335;23;20020;-92
2023/04/20 20:31:17;;;;;;;29.23;21.27;;;7.60;76.40;;;;;;6217981;23;20338;-90
2023/04/20 20:33:42;;;;;;;31.87;22.17;;;7.60;76.50;;;;;;6203552;23;20095;-90
2023/04/20 20:36:09;;;;;;;28.63;20.63;;;7.70;76.40;;;;;;6191735;23;20091;-90
2023/04/20 20:38:42;;;;;;;30.80;21.37;;;7.60;76.40;;;;;;6210607;23;20016;-90
2023/04/20 20:41:12;;;;;;;29.90;20.73;;;7.70;76.60;;;;;;6191750;23;20016;-90
2023/04/20 20:43:41;;;;;;;29.87;20.60;;;7.70;76.50;;;;;;6203113;23;20027;-90
2023/04/20 20:46:10;;;;;;;32.73;20.77;;;7.70;76.60;;;;;;6216955;23;20020;-91
2023/04/20 20:48:38;;;;;;;28.10;20.43;;;7.70;76.50;;;;;;6197457;23;20031;-91
2023/04/20 20:51:10;;;;;;;27.33;20.40;;;7.70;76.50;;;;;;6192722;23;20020;-91
2023/04/20 20:53:36;;;;;;;27.30;20.30;;;7.80;76.80;;;;;;6166810;23;20350;-90
2023/04/20 20:56:09;;;;;;;28.60;20.23;;;7.70;76.70;;;;;;6193384;23;20012;-91
2023/04/20 20:58:38;;;;;;;32.37;21.30;;;7.70;76.70;;;;;;6210520;23;20493;-91
2023/04/20 21:01:06;;;;;;;25.73;19.65;;;7.70;76.60;;;;;;6194379;23;20520;-90
2023/04/20 21:03:38;;;;;;;29.33;21.43;;;7.70;76.70;;;;;;6152124;23;20024;-90
2023/04/20 21:06:08;;;;;;;29.27;20.98;;;7.70;76.70;;;;;;6218226;23;20016;-91
2023/04/20 21:08:34;;;;;;;31.77;21.17;;;7.70;76.60;;;;;;6185033;23;20024;-91
2023/04/20 21:11:06;;;;;;;30.57;21.40;;;7.70;76.60;;;;;;6217749;23;20055;-90
2023/04/20 21:13:37;;;;;;;28.08;20.65;;;7.70;76.60;;;;;;6203842;22;20028;-90
2023/04/20 21:16:09;;;;;;;32.00;21.87;;;7.70;76.60;;;;;;6194796;23;20016;-90
2023/04/20 21:18:38;;;;;;;29.23;21.03;;;7.60;76.60;;;;;;6195506;22;20133;-91
2023/04/20 21:21:16;;;;;;;31.80;21.43;;;7.60;76.60;;;;;;6216874;23;20016;-90
2023/04/20 21:23:42;;;;;;;33.30;20.53;;;7.60;76.60;;;;;;6203145;22;20028;-90
2023/04/20 21:26:13;;;;;;;35.00;22.07;;;7.60;76.70;;;;;;6192748;23;20074;-91
2023/04/20 21:28:39;;;;;;;30.67;21.10;;;7.60;76.70;;;;;;6184975;22;20531;-91
2023/04/20 21:31:05;;;;;;;31.10;21.37;;;7.60;76.80;;;;;;6216006;23;20020;-91
2023/04/20 21:33:33;;;;;;;35.13;22.37;;;7.60;76.90;;;;;;6201846;23;20470;-90
2023/04/20 21:35:59;;;;;;;31.17;21.17;;;7.60;76.80;;;;;;6217523;23;20020;-90
2023/04/20 21:38:27;;;;;;;32.97;23.43;;;7.50;76.80;;;;;;6210961;23;20016;-91
2023/04/20 21:40:53;;;;;;;29.53;21.80;;;7.50;76.80;;;;;;6192226;23;20042;-91
2023/04/20 21:43:19;;;;;;;28.07;20.50;;;7.50;76.80;;;;;;6214633;23;20070;-91
2023/04/20 21:45:49;;;;;;;29.20;21.10;;;7.50;76.80;;;;;;6217573;23;20016;-90
2023/04/20 21:48:23;;;;;;;32.27;22.70;;;7.50;76.80;;;;;;6182717;23;20030;-91
2023/04/20 21:50:49;;;;;;;30.83;22.23;;;7.50;76.90;;;;;;6217360;23;20027;-91
2023/04/20 21:53:18;;;;;;;34.07;22.73;;;7.50;76.90;;;;;;6190762;23;20443;-91
2023/04/20 21:55:44;;;;;;;36.33;23.80;;;7.40;76.90;;;;;;6216933;23;20020;-91
2023/04/20 21:58:10;;;;;;;33.27;23.37;;;7.40;76.90;;;;;;6148256;23;20020;-91
2023/04/20 22:00:36;;;;;;;32.23;23.73;;;7.40;77.00;;;;;;6216595;23;20027;-91
2023/04/20 22:03:02;;;;;;;34.77;23.47;;;7.40;77.00;;;;;;6214410;23;20034;-91
2023/04/20 22:05:31;;;;;;;34.00;24.20;;;7.40;77.00;;;;;;6218250;23;20446;-90
2023/04/20 22:08:09;;;;;;;37.07;24.43;;;7.30;77.10;;;;;;6197292;23;20032;-92
2023/04/20 22:10:35;;;;;;;37.03;24.40;;;7.20;77.10;;;;;;6217657;23;20020;-91
2023/04/20 22:13:09;;;;;;;34.07;24.97;;;7.30;77.00;;;;;;6189915;23;20027;-90
2023/04/20 22:15:42;;;;;;;35.37;24.77;;;7.20;77.10;;;;;;6217474;23;20016;-91
2023/04/20 22:18:10;;;;;;;39.30;26.90;;;7.20;77.10;;;;;;6173003;23;20073;-90
2023/04/20 22:20:39;;;;;;;38.03;27.93;;;7.20;77.10;;;;;;6217835;23;20031;-91
2023/04/20 22:23:15;;;;;;;36.53;26.87;;;7.20;77.20;;;;;;6190106;23;20028;-90
2023/04/20 22:25:44;;;;;;;42.80;28.37;;;7.20;77.20;;;;;;6172144;23;20020;-91
2023/04/20 22:28:20;;;;;;;43.47;28.97;;;7.20;77.20;;;;;;6195057;23;20024;-91
2023/04/20 22:31:03;;;;;;;42.37;30.60;;;7.20;77.10;;;;;;6241902;23;20091;-91
2023/04/20 22:33:29;;;;;;;47.47;31.57;;;7.20;77.20;;;;;;6215493;23;20020;-90
2023/04/20 22:35:55;;;;;;;44.40;31.23;;;7.20;77.30;;;;;;6216490;23;20069;-90
2023/04/20 22:38:26;;;;;;;47.30;31.10;;;7.20;77.30;;;;;;6184682;23;20020;-91
2023/04/20 22:41:04;;;;;;;47.10;33.03;;;7.20;77.20;;;;;;6189935;23;20012;-92
2023/04/20 22:43:30;;;;;;;50.93;33.47;;;7.20;77.20;;;;;;6213605;23;20446;-91
2023/04/20 22:45:57;;;;;;;50.03;33.77;;;7.20;77.30;;;;;;6166032;23;20016;-92
2023/04/20 22:48:27;;;;;;;49.33;33.03;;;7.10;77.30;;;;;;6155781;23;20020;-91
2023/04/20 22:50:59;;;;;;;48.27;33.83;;;7.10;77.30;;;;;;6216150;23;20020;-92
2023/04/20 22:53:28;;;;;;;51.40;35.67;;;7.10;77.30;;;;;;6189367;23;20016;-91
2023/04/20 22:56:02;;;;;;;47.90;33.03;;;7.00;77.30;;;;;;6215468;23;20327;-91
2023/04/20 22:58:28;;;;;;;48.03;33.63;;;7.00;77.20;;;;;;6194160;22;20026;-91
2023/04/20 23:00:54;;;;;;;51.23;35.20;;;7.00;77.30;;;;;;6191945;23;20051;-91